createdAt,value
2018-02-15T00:00:12.226Z,99047.58
2018-02-15T00:02:39.778Z,99053.11
2018-02-15T00:05:07.523Z,99052.48
2018-02-15T00:07:35.224Z,99056.81
2018-02-15T00:10:02.785Z,99059.03
2018-02-15T00:12:30.592Z,99050.14
2018-02-15T00:14:58.155Z,99060.43
2018-02-15T00:17:25.765Z,99063.42
2018-02-15T00:19:53.545Z,99060.71
2018-02-15T00:22:21.264Z,99057.80
2018-02-15T00:24:48.981Z,99056.73
2018-02-15T00:27:16.542Z,99057.19
2018-02-15T00:29:44.418Z,99058.16
2018-02-15T00:32:11.982Z,99055.61
2018-02-15T00:34:39.533Z,99058.56
2018-02-15T00:37:07.110Z,99050.63
2018-02-15T00:39:34.673Z,99055.05
2018-02-15T00:42:02.287Z,99054.34
2018-02-15T00:44:29.857Z,99053.30
2018-02-15T00:46:57.413Z,99051.99
2018-02-15T00:49:25.052Z,99061.52
2018-02-15T00:51:52.877Z,99058.39
2018-02-15T00:54:20.517Z,99055.69
2018-02-15T00:56:48.085Z,99057.25
2018-02-15T00:59:16.142Z,99052.55
2018-02-15T01:01:43.753Z,99058.69
2018-02-15T01:04:11.645Z,99059.68
2018-02-15T01:06:39.270Z,99063.23
2018-02-15T01:09:07.007Z,99066.79
2018-02-15T01:11:34.645Z,99068.90
2018-02-15T01:14:02.213Z,99072.73
2018-02-15T01:16:29.773Z,99077.70
2018-02-15T01:18:57.580Z,99081.12
2018-02-15T01:21:25.173Z,99081.17
2018-02-15T01:23:52.808Z,99078.39
2018-02-15T01:26:20.490Z,99077.83
2018-02-15T01:28:48.104Z,99084.84
2018-02-15T01:31:15.749Z,99082.59
2018-02-15T01:33:43.465Z,99077.33
2018-02-15T01:36:11.042Z,99085.27
2018-02-15T01:38:38.824Z,99090.98
2018-02-15T01:41:06.386Z,99087.71
2018-02-15T01:43:33.937Z,99084.30
2018-02-15T01:46:01.779Z,99076.27
2018-02-15T01:48:29.357Z,99080.37
2018-02-15T01:50:57.014Z,99087.41
2018-02-15T01:53:24.577Z,99096.28
2018-02-15T01:55:52.229Z,99098.19
2018-02-15T01:58:19.813Z,99102.88
2018-02-15T02:00:47.372Z,99094.37
2018-02-15T02:03:14.983Z,99103.01
2018-02-15T02:05:42.538Z,99101.86
2018-02-15T02:08:10.131Z,99095.48
2018-02-15T02:10:37.697Z,99101.99
2018-02-15T02:13:05.475Z,99098.64
2018-02-15T02:15:33.294Z,99096.97
2018-02-15T02:18:00.850Z,99100.30
2018-02-15T02:20:28.515Z,99105.48
2018-02-15T02:22:56.074Z,99100.45
2018-02-15T02:25:23.629Z,99105.81
2018-02-15T02:27:51.227Z,99102.89
2018-02-15T02:30:18.914Z,99108.80
2018-02-15T02:32:46.490Z,99115.90
2018-02-15T02:35:14.031Z,99117.64
2018-02-15T02:37:41.855Z,99125.80
2018-02-15T02:40:09.418Z,99124.85
2018-02-15T02:42:37.192Z,99126.95
2018-02-15T02:45:04.762Z,99136.39
2018-02-15T02:47:32.315Z,99142.47
2018-02-15T02:49:59.891Z,99150.41
2018-02-15T02:52:27.452Z,99149.67
2018-02-15T02:54:55.080Z,99152.16
2018-02-15T02:57:22.642Z,99159.58
2018-02-15T02:59:50.202Z,99163.03
2018-02-15T03:02:17.776Z,99159.98
2018-02-15T03:04:45.344Z,99170.94
2018-02-15T03:07:12.910Z,99170.75
2018-02-15T03:09:40.470Z,99177.49
2018-02-15T03:12:08.131Z,99184.59
2018-02-15T03:14:35.694Z,99184.98
2018-02-15T03:17:03.249Z,99185.28
2018-02-15T03:19:30.826Z,99193.73
2018-02-15T03:21:58.396Z,99190.45
2018-02-15T03:24:26.195Z,99191.98
2018-02-15T03:26:53.749Z,99199.22
2018-02-15T03:29:21.358Z,99191.20
2018-02-15T03:31:49.148Z,99188.65
2018-02-15T03:34:16.695Z,99199.04
2018-02-15T03:36:44.485Z,99197.27
2018-02-15T03:39:12.046Z,99201.63
2018-02-15T03:41:40.510Z,99204.25
2018-02-15T03:44:08.068Z,99210.10
2018-02-15T03:46:35.764Z,99205.97
2018-02-15T03:49:03.337Z,99204.74
2018-02-15T03:51:31.196Z,99201.27
2018-02-15T03:53:59.016Z,99205.05
2018-02-15T03:56:26.833Z,99211.86
2018-02-15T03:58:54.406Z,99206.26
2018-02-15T04:01:21.966Z,99206.50
2018-02-15T04:03:49.585Z,99213.69
2018-02-15T04:06:17.141Z,99217.09
2018-02-15T04:08:44.713Z,99215.13
2018-02-15T04:11:12.282Z,99221.52
2018-02-15T04:13:39.965Z,99218.97
2018-02-15T04:16:07.776Z,99219.89
2018-02-15T04:18:35.338Z,99227.53
2018-02-15T04:21:02.987Z,99237.58
2018-02-15T04:23:30.573Z,99237.20
2018-02-15T04:25:58.348Z,99236.23
2018-02-15T04:28:26.038Z,99244.25
2018-02-15T04:30:53.784Z,99239.03
2018-02-15T04:33:21.353Z,99250.67
2018-02-15T04:35:48.913Z,99251.60
2018-02-15T04:38:16.697Z,99253.83
2018-02-15T04:40:44.261Z,99258.45
2018-02-15T04:43:12.074Z,99262.33
2018-02-15T04:45:39.645Z,99251.54
2018-02-15T04:48:07.206Z,99256.83
2018-02-15T04:50:34.763Z,99256.78
2018-02-15T04:53:02.316Z,99263.20
2018-02-15T04:55:29.974Z,99261.07
2018-02-15T04:57:57.533Z,99263.88
2018-02-15T05:00:25.300Z,99271.59
2018-02-15T05:02:52.869Z,99276.08
2018-02-15T05:05:20.601Z,99275.47
2018-02-15T05:07:48.245Z,99278.86
2018-02-15T05:10:15.818Z,99288.60
2018-02-15T05:12:43.648Z,99295.39
2018-02-15T05:15:11.207Z,99305.67
2018-02-15T05:17:38.817Z,99303.81
2018-02-15T05:20:06.417Z,99307.98
2018-02-15T05:22:34.008Z,99314.48
2018-02-15T05:25:01.578Z,99322.23
2018-02-15T05:27:29.147Z,99321.39
2018-02-15T05:29:56.916Z,99332.64
2018-02-15T05:32:24.504Z,99334.50
2018-02-15T05:34:52.055Z,99337.31
2018-02-15T05:37:19.873Z,99350.03
2018-02-15T05:39:47.687Z,99352.66
2018-02-15T05:42:15.273Z,99358.17
2018-02-15T05:44:43.069Z,99358.02
2018-02-15T05:47:10.943Z,99360.73
2018-02-15T05:49:38.505Z,99363.17
2018-02-15T05:52:06.278Z,99367.84
2018-02-15T05:54:33.845Z,99362.15
2018-02-15T05:57:01.588Z,99367.08
2018-02-15T05:59:29.439Z,99360.05
2018-02-15T06:01:56.998Z,99362.55
2018-02-15T06:04:24.769Z,99361.00
2018-02-15T06:06:52.353Z,99377.09
2018-02-15T06:09:19.914Z,99367.75
2018-02-15T06:11:47.615Z,99374.48
2018-02-15T06:14:15.210Z,99368.95
2018-02-15T06:16:42.788Z,99370.89
2018-02-15T06:19:10.358Z,99376.99
2018-02-15T06:21:38.196Z,99378.41
2018-02-15T06:24:06.030Z,99382.41
2018-02-15T06:26:33.585Z,99378.27
2018-02-15T06:29:01.357Z,99377.91
2018-02-15T06:31:28.918Z,99374.73
2018-02-15T06:33:56.596Z,99379.51
2018-02-15T06:36:24.313Z,99378.13
2018-02-15T06:38:51.939Z,99377.20
2018-02-15T06:41:19.501Z,99379.69
2018-02-15T06:43:47.061Z,99373.88
2018-02-15T06:46:14.876Z,99365.88
2018-02-15T06:48:42.595Z,99362.17
2018-02-15T06:51:10.313Z,99365.89
2018-02-15T06:53:37.869Z,99360.58
2018-02-15T06:56:05.850Z,99360.77
2018-02-15T06:58:33.420Z,99363.85
2018-02-15T07:01:01.225Z,99358.48
2018-02-15T07:03:28.794Z,99354.34
2018-02-15T07:05:56.368Z,99359.44
2018-02-15T07:08:24.144Z,99365.11
2018-02-15T07:10:51.958Z,99373.81
2018-02-15T07:13:19.777Z,99380.09
2018-02-15T07:15:47.315Z,99383.64
2018-02-15T07:18:15.113Z,99388.06
2018-02-15T07:20:42.686Z,99390.07
2018-02-15T07:23:10.429Z,99386.83
2018-02-15T07:25:38.167Z,99384.58
2018-02-15T07:28:05.729Z,99389.25
2018-02-15T07:30:33.478Z,99393.75
2018-02-15T07:33:01.104Z,99398.05
2018-02-15T07:35:28.661Z,99394.00
2018-02-15T07:37:56.238Z,99403.39
2018-02-15T07:40:23.789Z,99406.06
2018-02-15T07:42:51.486Z,99400.23
2018-02-15T07:45:19.060Z,99415.05
2018-02-15T07:47:46.820Z,99414.86
2018-02-15T07:50:14.429Z,99419.98
2018-02-15T07:52:42.055Z,99425.43
2018-02-15T07:55:09.843Z,99415.33
2018-02-15T07:57:37.446Z,99422.59
2018-02-15T08:00:05.133Z,99424.80
2018-02-15T08:02:32.706Z,99434.35
2018-02-15T08:05:00.556Z,99439.43
2018-02-15T08:07:28.380Z,99441.09
2018-02-15T08:09:55.993Z,99443.06
2018-02-15T08:12:23.562Z,99448.30
2018-02-15T08:14:51.125Z,99443.97
2018-02-15T08:17:18.948Z,99444.11
2018-02-15T08:19:46.555Z,99446.80
2018-02-15T08:22:14.275Z,99450.61
2018-02-15T08:24:41.842Z,99445.08
2018-02-15T08:27:09.407Z,99446.09
2018-02-15T08:29:36.974Z,99449.06
2018-02-15T08:32:04.641Z,99453.88
2018-02-15T08:34:32.266Z,99448.98
2018-02-15T08:36:59.830Z,99450.33
2018-02-15T08:39:27.564Z,99449.83
2018-02-15T08:41:55.244Z,99452.53
2018-02-15T08:44:22.959Z,99452.76
2018-02-15T08:46:50.763Z,99461.38
2018-02-15T08:49:18.323Z,99466.98
2018-02-15T08:51:45.989Z,99460.20
2018-02-15T08:54:13.597Z,99460.02
2018-02-15T08:56:41.439Z,99459.07
2018-02-15T08:59:08.992Z,99465.18
2018-02-15T09:01:36.558Z,99465.88
2018-02-15T09:04:04.135Z,99469.00
2018-02-15T09:06:31.698Z,99470.25
2018-02-15T09:08:59.266Z,99460.02
2018-02-15T09:11:27.002Z,99466.16
2018-02-15T09:13:54.774Z,99467.56
2018-02-15T09:16:22.579Z,99466.04
2018-02-15T09:18:50.143Z,99482.78
2018-02-15T09:21:17.759Z,99486.58
2018-02-15T09:23:45.435Z,99492.90
2018-02-15T09:26:13.043Z,99488.13
2018-02-15T09:28:40.769Z,99494.56
2018-02-15T09:31:08.404Z,99501.31
2018-02-15T09:33:36.092Z,99503.77
2018-02-15T09:36:03.654Z,99501.20
2018-02-15T09:38:31.405Z,99493.94
2018-02-15T09:40:58.956Z,99493.25
2018-02-15T09:43:26.586Z,99488.84
2018-02-15T09:45:54.153Z,99488.57
2018-02-15T09:48:21.716Z,99486.02
2018-02-15T09:50:49.286Z,99489.16
2018-02-15T09:53:17.033Z,99481.54
2018-02-15T09:55:44.645Z,99488.33
2018-02-15T09:58:12.284Z,99489.73
2018-02-15T10:00:39.851Z,99486.55
2018-02-15T10:03:07.621Z,99495.16
2018-02-15T10:05:35.182Z,99491.55
2018-02-15T10:08:03.028Z,99484.59
2018-02-15T10:10:30.744Z,99486.09
2018-02-15T10:12:58.385Z,99487.95
2018-02-15T10:15:26.014Z,99481.80
2018-02-15T10:17:53.570Z,99486.84
2018-02-15T10:20:21.163Z,99486.73
2018-02-15T10:22:48.969Z,99488.43
2018-02-15T10:25:16.576Z,99491.98
2018-02-15T10:27:44.192Z,99492.23
2018-02-15T10:30:11.749Z,99485.64
2018-02-15T10:32:39.310Z,99483.67
2018-02-15T10:35:06.879Z,99494.63
2018-02-15T10:37:34.489Z,99499.05
2018-02-15T10:40:02.291Z,99497.63
2018-02-15T10:42:29.857Z,99497.37
2018-02-15T10:44:57.539Z,99491.31
2018-02-15T10:47:25.345Z,99492.13
2018-02-15T10:49:52.913Z,99488.30
2018-02-15T10:52:20.488Z,99493.20
2018-02-15T10:54:48.052Z,99488.69
2018-02-15T10:57:15.646Z,99490.33
2018-02-15T10:59:43.211Z,99491.30
2018-02-15T11:02:16.450Z,99491.73
2018-02-15T11:04:49.553Z,99498.37
2018-02-15T11:07:17.178Z,99490.20
2018-02-15T11:09:44.945Z,99494.44
2018-02-15T11:12:12.501Z,99496.50
2018-02-15T11:14:40.281Z,99496.70
2018-02-15T11:17:07.833Z,99491.83
2018-02-15T11:19:35.402Z,99495.99
2018-02-15T11:22:03.115Z,99494.42
2018-02-15T11:24:30.747Z,99491.59
2018-02-15T11:26:58.571Z,99492.81
2018-02-15T11:29:26.128Z,99486.63
2018-02-15T11:31:53.702Z,99480.41
2018-02-15T11:34:21.294Z,99479.08
2018-02-15T11:36:48.870Z,99484.97
2018-02-15T11:39:16.539Z,99481.42
2018-02-15T11:41:44.171Z,99482.39
2018-02-15T11:44:11.719Z,99481.55
2018-02-15T11:46:39.261Z,99476.84
2018-02-15T11:49:06.829Z,99473.47
2018-02-15T11:51:34.653Z,99489.93
2018-02-15T11:54:02.259Z,99488.51
2018-02-15T11:56:30.011Z,99490.37
2018-02-15T11:58:57.627Z,99493.17
2018-02-15T12:01:25.243Z,99487.34
2018-02-15T12:03:52.833Z,99479.31
2018-02-15T12:06:20.658Z,99478.49
2018-02-15T12:08:48.221Z,99485.11
2018-02-15T12:11:15.968Z,99478.72
2018-02-15T12:13:43.530Z,99489.91
2018-02-15T12:16:11.153Z,99481.77
2018-02-15T12:18:38.757Z,99484.80
2018-02-15T12:21:06.569Z,99490.03
2018-02-15T12:23:34.143Z,99504.30
2018-02-15T12:26:01.902Z,99504.86
2018-02-15T12:28:29.721Z,99503.23
2018-02-15T12:30:57.427Z,99504.59
2018-02-15T12:33:25.258Z,99500.39
2018-02-15T12:35:52.827Z,99504.67
2018-02-15T12:38:20.506Z,99501.67
2018-02-15T12:40:48.093Z,99505.45
2018-02-15T12:43:15.697Z,99503.69
2018-02-15T12:45:43.423Z,99504.20
2018-02-15T12:48:10.993Z,99508.16
2018-02-15T12:50:38.784Z,99507.88
2018-02-15T12:53:06.334Z,99515.70
2018-02-15T12:55:33.898Z,99515.05
2018-02-15T12:58:01.604Z,99517.95
2018-02-15T13:00:29.162Z,99518.82
2018-02-15T13:02:56.758Z,99526.52
2018-02-15T13:05:24.318Z,99514.61
2018-02-15T13:07:52.109Z,99520.43
2018-02-15T13:10:19.927Z,99524.42
2018-02-15T13:12:59.491Z,99515.37
2018-02-15T13:15:39.047Z,99516.28
2018-02-15T13:18:06.866Z,99513.97
2018-02-15T13:20:35.286Z,99518.94
2018-02-15T13:23:02.854Z,99495.98
2018-02-15T13:25:30.422Z,99518.31
2018-02-15T13:28:09.988Z,99520.44
2018-02-15T13:30:37.701Z,99522.50
2018-02-15T13:33:05.334Z,99517.97
2018-02-15T13:35:32.907Z,99521.92
2018-02-15T13:38:00.462Z,99523.78
2018-02-15T13:40:28.054Z,99525.90
2018-02-15T13:42:55.614Z,99523.94
2018-02-15T13:45:23.226Z,99534.39
2018-02-15T13:47:50.782Z,99533.81
2018-02-15T13:50:18.342Z,99539.89
2018-02-15T13:52:45.906Z,99544.13
2018-02-15T13:55:13.682Z,99534.46
2018-02-15T13:57:41.289Z,99529.13
2018-02-15T14:00:09.115Z,99537.93
2018-02-15T14:02:36.739Z,99540.80
2018-02-15T14:05:04.552Z,99540.48
2018-02-15T14:07:32.142Z,99544.97
2018-02-15T14:09:59.888Z,99546.09
2018-02-15T14:12:27.446Z,99553.27
2018-02-15T14:14:55.114Z,99549.83
2018-02-15T14:17:22.674Z,99550.16
2018-02-15T14:19:50.297Z,99549.36
2018-02-15T14:22:17.865Z,99548.78
2018-02-15T14:24:45.574Z,99551.59
2018-02-15T14:27:13.119Z,99556.24
2018-02-15T14:29:40.931Z,99556.98
2018-02-15T14:32:08.502Z,99551.22
2018-02-15T14:34:36.077Z,99568.95
2018-02-15T14:37:03.987Z,99568.64
2018-02-15T14:39:31.574Z,99573.75
2018-02-15T14:41:59.134Z,99575.94
2018-02-15T14:44:26.942Z,99578.20
2018-02-15T14:46:54.510Z,99579.24
2018-02-15T14:49:22.074Z,99582.24
2018-02-15T14:51:49.653Z,99576.66
2018-02-15T14:54:17.279Z,99574.53
2018-02-15T14:56:44.920Z,99574.69
2018-02-15T14:59:12.539Z,99588.45
2018-02-15T15:01:40.163Z,99592.14
2018-02-15T15:04:07.984Z,99587.22
2018-02-15T15:06:35.581Z,99595.29
2018-02-15T15:09:03.210Z,99595.08
2018-02-15T15:11:30.857Z,99602.94
2018-02-15T15:13:58.657Z,99598.53
2018-02-15T15:16:26.227Z,99592.47
2018-02-15T15:18:53.883Z,99608.06
2018-02-15T15:21:21.444Z,99610.88
2018-02-15T15:23:49.046Z,99617.20
2018-02-15T15:26:16.636Z,99618.16
2018-02-15T15:28:44.265Z,99616.78
2018-02-15T15:31:11.972Z,99621.25
2018-02-15T15:33:39.530Z,99625.41
2018-02-15T15:36:07.096Z,99627.13
2018-02-15T15:38:34.641Z,99629.80
2018-02-15T15:41:02.206Z,99643.83
2018-02-15T15:43:29.794Z,99644.48
2018-02-15T15:45:57.428Z,99641.59
2018-02-15T15:48:25.027Z,99651.75
2018-02-15T15:50:52.591Z,99652.14
2018-02-15T15:53:20.157Z,99654.67
2018-02-15T15:55:47.961Z,99635.72
2018-02-15T15:58:15.525Z,99663.09
2018-02-15T16:00:43.999Z,99668.44
2018-02-15T16:03:11.627Z,99669.14
2018-02-15T16:05:39.226Z,99674.86
2018-02-15T16:08:06.933Z,99682.76
2018-02-15T16:10:34.513Z,99691.28
2018-02-15T16:13:02.137Z,99693.80
2018-02-15T16:15:29.703Z,99695.25
2018-02-15T16:17:57.315Z,99690.44
2018-02-15T16:20:25.152Z,99709.91
2018-02-15T16:22:52.861Z,99708.70
2018-02-15T16:25:20.683Z,99715.70
2018-02-15T16:27:48.252Z,99724.28
2018-02-15T16:30:16.016Z,99720.75
2018-02-15T16:32:43.586Z,99717.91
2018-02-15T16:35:11.142Z,99724.57
2018-02-15T16:37:38.750Z,99731.25
2018-02-15T16:40:06.488Z,99727.23
2018-02-15T16:42:34.050Z,99730.22
2018-02-15T16:45:01.638Z,99725.06
2018-02-15T16:47:29.235Z,99730.12
2018-02-15T16:49:56.822Z,99721.58
2018-02-15T16:52:24.577Z,99726.09
2018-02-15T16:54:52.382Z,99731.83
2018-02-15T16:57:19.949Z,99729.88
2018-02-15T16:59:47.700Z,99729.94
2018-02-15T17:02:15.278Z,99728.36
2018-02-15T17:04:42.960Z,99732.95
2018-02-15T17:07:10.686Z,99727.87
2018-02-15T17:09:38.258Z,99732.77
2018-02-15T17:12:06.125Z,99738.06
2018-02-15T17:14:33.942Z,99743.69
2018-02-15T17:17:01.760Z,99739.12
2018-02-15T17:19:29.493Z,99746.77
2018-02-15T17:21:57.082Z,99752.94
2018-02-15T17:24:24.683Z,99759.59
2018-02-15T17:26:52.291Z,99766.02
2018-02-15T17:29:19.909Z,99769.08
2018-02-15T17:31:47.476Z,99778.00
2018-02-15T17:34:15.286Z,99780.37
2018-02-15T17:36:42.861Z,99780.30
2018-02-15T17:39:10.622Z,99784.17
2018-02-15T17:41:38.222Z,99784.97
2018-02-15T17:44:05.850Z,99783.68
2018-02-15T17:46:33.676Z,99790.65
2018-02-15T17:49:01.287Z,99797.81
2018-02-15T17:51:28.877Z,99797.67
2018-02-15T17:53:56.453Z,99793.80
2018-02-15T17:56:24.036Z,99790.53
2018-02-15T17:58:51.601Z,99792.00
2018-02-15T18:01:19.203Z,99799.05
2018-02-15T18:03:46.823Z,99804.91
2018-02-15T18:06:14.393Z,99815.25
2018-02-15T18:08:42.022Z,99812.30
2018-02-15T18:11:09.579Z,99807.14
2018-02-15T18:13:37.177Z,99805.41
2018-02-15T18:16:04.954Z,99809.30
2018-02-15T18:18:32.518Z,99808.55
2018-02-15T18:21:00.220Z,99806.73
2018-02-15T18:23:27.945Z,99811.64
2018-02-15T18:25:55.515Z,99816.13
2018-02-15T18:28:23.183Z,99809.94
2018-02-15T18:30:50.748Z,99810.52
2018-02-15T18:33:18.361Z,99820.50
2018-02-15T18:35:45.930Z,99822.06
2018-02-15T18:38:13.752Z,99821.22
2018-02-15T18:40:41.572Z,99821.93
2018-02-15T18:43:09.136Z,99825.34
2018-02-15T18:45:36.912Z,99832.14
2018-02-15T18:48:04.512Z,99828.86
2018-02-15T18:50:32.076Z,99831.83
2018-02-15T18:52:59.754Z,99835.15
2018-02-15T18:55:27.360Z,99837.91
2018-02-15T18:57:55.203Z,99841.64
2018-02-15T19:00:22.765Z,99840.27
2018-02-15T19:02:50.349Z,99836.99
2018-02-15T19:05:17.947Z,99844.63
2018-02-15T19:07:45.519Z,99844.50
2018-02-15T19:10:13.389Z,99842.21
2018-02-15T19:12:41.207Z,99846.05
2018-02-15T19:15:08.782Z,99848.77
2018-02-15T19:17:36.380Z,99847.98
2018-02-15T19:20:03.972Z,99846.06
2018-02-15T19:22:31.606Z,99838.84
2018-02-15T19:24:59.494Z,99849.85
2018-02-15T19:27:27.062Z,99847.06
2018-02-15T19:29:54.758Z,99838.00
2018-02-15T19:32:22.466Z,99840.63
2018-02-15T19:34:50.091Z,99843.83
2018-02-15T19:37:17.650Z,99841.41
2018-02-15T19:39:45.380Z,99835.82
2018-02-15T19:42:13.097Z,99841.91
2018-02-15T19:44:40.661Z,99844.23
2018-02-15T19:47:08.460Z,99851.27
2018-02-15T19:49:36.023Z,99856.52
2018-02-15T19:52:03.905Z,99860.30
2018-02-15T19:54:31.503Z,99863.73
2018-02-15T19:56:59.116Z,99861.91
2018-02-15T19:59:26.717Z,99849.44
2018-02-15T20:01:54.301Z,99857.08
2018-02-15T20:04:21.977Z,99864.96
2018-02-15T20:06:49.701Z,99867.98
2018-02-15T20:09:17.499Z,99876.75
2018-02-15T20:11:45.230Z,99870.47
2018-02-15T20:14:12.879Z,99878.03
2018-02-15T20:16:40.499Z,99881.97
2018-02-15T20:19:08.184Z,99884.23
2018-02-15T20:21:35.807Z,99878.19
2018-02-15T20:24:03.399Z,99878.88
2018-02-15T20:26:36.468Z,99870.63
2018-02-15T20:29:04.037Z,99871.05
2018-02-15T20:31:31.634Z,99869.42
2018-02-15T20:33:59.262Z,99876.25
2018-02-15T20:36:26.921Z,99878.19
2018-02-15T20:39:00.031Z,99880.27
2018-02-15T20:41:27.589Z,99878.44
2018-02-15T20:43:55.162Z,99884.78
2018-02-15T20:46:22.754Z,99888.48
2018-02-15T20:48:50.324Z,99889.45
2018-02-15T20:51:23.780Z,99896.89
2018-02-15T20:53:56.750Z,99895.10
2018-02-15T20:56:24.401Z,99898.66
2018-02-15T20:58:52.068Z,99892.84
2018-02-15T21:01:19.777Z,99903.58
2018-02-15T21:03:47.498Z,99910.23
2018-02-15T21:06:15.349Z,99911.89
2018-02-15T21:08:43.798Z,99914.64
2018-02-15T21:11:11.422Z,99917.26
2018-02-15T21:13:39.184Z,99929.34
2018-02-15T21:16:06.758Z,99935.52
2018-02-15T21:18:34.314Z,99920.48
2018-02-15T21:21:01.886Z,99929.66
2018-02-15T21:23:29.494Z,99931.77
2018-02-15T21:25:57.118Z,99940.05
2018-02-15T21:28:24.756Z,99937.59
2018-02-15T21:30:52.375Z,99937.64
2018-02-15T21:33:19.949Z,99941.08
2018-02-15T21:35:47.612Z,99942.52
2018-02-15T21:38:15.221Z,99950.00
2018-02-15T21:40:42.924Z,99949.36
2018-02-15T21:43:10.592Z,99944.98
2018-02-15T21:45:38.166Z,99942.03
2018-02-15T21:48:05.910Z,99948.67
2018-02-15T21:50:33.688Z,99946.73
2018-02-15T21:53:01.249Z,99944.06
2018-02-15T21:55:28.841Z,99947.61
2018-02-15T21:57:56.425Z,99953.31
2018-02-15T22:00:24.202Z,99956.30
2018-02-15T22:02:51.902Z,99961.32
2018-02-15T22:05:19.462Z,99960.43
2018-02-15T22:07:47.047Z,99962.77
2018-02-15T22:10:14.617Z,99950.77
2018-02-15T22:12:42.391Z,99951.27
2018-02-15T22:15:10.006Z,99945.28
2018-02-15T22:17:37.574Z,99953.18
2018-02-15T22:20:05.138Z,99946.75
2018-02-15T22:22:32.710Z,99940.73
2018-02-15T22:25:00.441Z,99945.11
2018-02-15T22:27:28.102Z,99943.89
2018-02-15T22:29:55.817Z,99943.58
2018-02-15T22:32:23.426Z,99956.61
2018-02-15T22:34:51.016Z,99959.70
2018-02-15T22:37:18.587Z,99966.48
2018-02-15T22:39:46.389Z,99969.55
2018-02-15T22:42:13.926Z,99973.12
2018-02-15T22:44:41.495Z,99978.98
2018-02-15T22:47:09.045Z,99978.36
2018-02-15T22:49:36.855Z,99972.28
2018-02-15T22:52:04.680Z,99973.98
2018-02-15T22:54:32.247Z,99968.45
2018-02-15T22:56:59.911Z,99968.34
2018-02-15T22:59:27.477Z,99960.87
2018-02-15T23:01:55.038Z,99967.91
2018-02-15T23:04:22.662Z,99975.90
2018-02-15T23:06:50.387Z,99977.48
2018-02-15T23:09:18.013Z,99976.87
2018-02-15T23:11:45.823Z,99968.51
2018-02-15T23:14:13.397Z,99971.42
2018-02-15T23:16:41.009Z,99974.87
2018-02-15T23:19:08.569Z,99976.21
2018-02-15T23:21:36.162Z,99979.44
2018-02-15T23:24:03.913Z,99982.64
2018-02-15T23:26:31.469Z,99978.97
2018-02-15T23:28:59.091Z,99986.41
2018-02-15T23:31:26.864Z,99978.14
2018-02-15T23:33:54.493Z,99980.70
2018-02-15T23:36:22.061Z,99977.22
2018-02-15T23:38:49.613Z,99977.31
2018-02-15T23:41:17.244Z,99984.88
2018-02-15T23:43:44.808Z,99981.64
2018-02-15T23:46:12.465Z,99978.03
2018-02-15T23:48:40.296Z,99984.27
2018-02-15T23:51:07.981Z,99988.52
2018-02-15T23:53:35.597Z,99986.86
2018-02-15T23:56:03.174Z,99987.28
2018-02-15T23:58:30.930Z,99980.50
